Time;durP1;ratioP1;P1;durP2;ratioP2;P2;SDS_P1;SDS_P2;PMS_P1;PMS_P2;Temp;Humidity;BMP_temperature;BMP_pressure;BME280_temperature;BME280_humidity;BME280_pressure;Samples;Min_cycle;Max_cycle;Signal;HPM_P1;HPM_P2
2022/12/27 00:00:27;;;;;;;10.53;2.00;;;4.60;99.90;;;;;;5086768;28;20520;-52
2022/12/27 00:02:54;;;;;;;9.50;2.30;;;4.50;99.90;;;;;;5081367;28;20500;-50
2022/12/27 00:05:21;;;;;;;10.67;2.50;;;4.40;99.90;;;;;;5087834;28;20519;-52
2022/12/27 00:07:47;;;;;;;5.03;1.90;;;4.30;99.90;;;;;;5091247;28;21007;-52
2022/12/27 00:10:14;;;;;;;9.07;2.20;;;4.30;99.90;;;;;;5083495;28;20965;-51
2022/12/27 00:12:40;;;;;;;11.00;2.93;;;4.30;99.90;;;;;;5083891;28;20508;-50
2022/12/27 00:15:09;;;;;;;8.77;2.53;;;4.20;99.90;;;;;;5084859;28;20449;-52
2022/12/27 00:17:35;;;;;;;4.83;2.07;;;4.10;99.90;;;;;;5071432;28;20930;-51
2022/12/27 00:20:03;;;;;;;9.53;2.10;;;4.20;99.90;;;;;;5082365;28;20449;-50
2022/12/27 00:22:29;;;;;;;6.57;2.20;;;4.00;99.90;;;;;;5085143;28;20491;-50
2022/12/27 00:24:56;;;;;;;15.73;2.30;;;4.00;99.90;;;;;;5081734;28;21010;-52
2022/12/27 00:27:22;;;;;;;11.87;2.93;;;3.90;99.90;;;;;;5081390;28;20552;-51
2022/12/27 00:29:49;;;;;;;6.20;2.07;;;3.90;99.90;;;;;;5082474;28;20548;-50
2022/12/27 00:32:17;;;;;;;17.17;3.60;;;3.80;99.90;;;;;;5078599;28;20517;-52
2022/12/27 00:34:43;;;;;;;11.63;2.30;;;3.80;99.90;;;;;;5074949;28;20914;-52
2022/12/27 00:37:10;;;;;;;8.57;2.37;;;3.80;99.90;;;;;;5077988;28;20494;-51
2022/12/27 00:39:37;;;;;;;8.20;2.43;;;3.80;99.90;;;;;;5074746;28;20456;-51
2022/12/27 00:42:03;;;;;;;14.20;2.80;;;3.70;99.90;;;;;;5081777;28;20513;-51
2022/12/27 00:44:30;;;;;;;6.13;1.87;;;3.70;99.90;;;;;;5090286;28;20488;-51
2022/12/27 00:46:57;;;;;;;5.57;2.30;;;3.70;99.90;;;;;;5077445;28;20513;-51
2022/12/27 00:49:24;;;;;;;16.17;2.77;;;3.70;99.90;;;;;;5081455;28;20488;-51
2022/12/27 00:51:51;;;;;;;4.43;2.10;;;3.70;99.90;;;;;;5089510;28;20487;-51
2022/12/27 00:54:18;;;;;;;12.10;2.60;;;3.60;99.90;;;;;;5081850;28;20522;-51
2022/12/27 00:56:44;;;;;;;10.73;2.70;;;3.50;99.90;;;;;;5082877;28;20497;-50
2022/12/27 00:59:12;;;;;;;4.40;1.80;;;3.50;99.90;;;;;;5088537;28;20501;-51
2022/12/27 01:01:39;;;;;;;4.73;2.00;;;3.50;99.90;;;;;;5084417;28;20500;-50
2022/12/27 01:04:06;;;;;;;8.70;2.20;;;3.40;99.90;;;;;;5087146;28;20489;-50
2022/12/27 01:06:35;;;;;;;8.67;2.37;;;3.50;99.90;;;;;;5092068;28;20484;-50
2022/12/27 01:09:04;;;;;;;7.27;2.40;;;3.50;99.90;;;;;;5082539;28;20500;-50
2022/12/27 01:11:31;;;;;;;5.90;2.23;;;3.50;99.90;;;;;;5092527;28;20500;-51
2022/12/27 01:14:00;;;;;;;9.00;2.80;;;3.60;99.90;;;;;;5089950;28;20488;-51
2022/12/27 01:16:28;;;;;;;8.10;2.17;;;3.50;99.90;;;;;;5089434;28;20475;-51
2022/12/27 01:18:55;;;;;;;16.17;2.77;;;3.50;99.90;;;;;;5085754;28;20467;-50
2022/12/27 01:21:24;;;;;;;4.30;2.00;;;3.50;99.90;;;;;;5093715;28;20559;-50
2022/12/27 01:23:52;;;;;;;8.90;3.13;;;3.50;99.90;;;;;;5087284;28;20475;-51
2022/12/27 01:26:21;;;;;;;5.43;2.10;;;3.50;99.90;;;;;;5076989;28;20512;-51
2022/12/27 01:28:48;;;;;;;4.63;1.93;;;3.50;99.90;;;;;;5089121;28;20965;-51
2022/12/27 01:31:17;;;;;;;5.03;1.80;;;3.40;99.90;;;;;;5093509;28;20502;-51
2022/12/27 01:33:44;;;;;;;8.53;2.17;;;3.40;99.90;;;;;;5092932;28;20524;-51
2022/12/27 01:36:13;;;;;;;14.80;2.30;;;3.40;99.90;;;;;;5083487;28;21249;-51
2022/12/27 01:38:41;;;;;;;5.60;1.70;;;3.40;99.90;;;;;;5084384;28;20464;-51
2022/12/27 01:43:57;;;;;;;8.50;2.83;;;3.40;99.90;;;;;;5091660;28;20499;-51
2022/12/27 01:46:24;;;;;;;10.10;2.87;;;3.30;99.90;;;;;;5093277;28;20512;-52
2022/12/27 01:48:51;;;;;;;14.53;3.03;;;3.30;99.90;;;;;;5093539;28;20476;-50
2022/12/27 01:51:18;;;;;;;10.10;2.03;;;3.30;99.90;;;;;;5080627;28;20587;-51
2022/12/27 01:53:49;;;;;;;10.27;1.80;;;3.30;99.90;;;;;;5083249;28;20492;-51
2022/12/27 01:56:21;;;;;;;9.80;2.53;;;3.20;99.90;;;;;;5080793;28;20458;-50
2022/12/27 01:58:50;;;;;;;9.20;2.00;;;3.30;99.90;;;;;;5086230;28;20500;-52
2022/12/27 02:01:30;;;;;;;16.23;2.90;;;3.30;99.90;;;;;;5082394;28;20575;-51
2022/12/27 02:03:59;;;;;;;7.70;1.87;;;3.20;99.90;;;;;;5087690;28;20531;-51
2022/12/27 02:06:27;;;;;;;4.80;1.93;;;3.10;99.90;;;;;;5088578;28;20568;-51
2022/12/27 02:08:59;;;;;;;8.43;2.20;;;3.10;99.90;;;;;;5089390;28;20491;-52
2022/12/27 02:14:17;;;;;;;15.23;2.53;;;3.10;99.90;;;;;;5092338;28;20917;-51
2022/12/27 02:16:44;;;;;;;8.13;2.20;;;3.10;99.90;;;;;;5081354;28;20981;-51
2022/12/27 02:19:18;;;;;;;12.53;2.70;;;3.10;99.90;;;;;;5085553;28;20514;-51
2022/12/27 02:22:17;;;;;;;7.07;2.17;;;3.10;99.90;;;;;;5070823;28;20508;-52
2022/12/27 02:25:10;;;;;;;11.33;3.10;;;3.10;99.90;;;;;;5082455;28;20448;-51
2022/12/27 02:27:57;;;;;;;6.20;2.93;;;3.00;99.90;;;;;;5086029;28;21134;-52
2022/12/27 02:30:25;;;;;;;13.03;3.53;;;3.00;99.90;;;;;;5071680;28;20503;-50
2022/12/27 02:32:58;;;;;;;9.83;2.77;;;3.00;99.90;;;;;;5085319;28;20606;-51
2022/12/27 02:35:29;;;;;;;6.13;1.83;;;3.00;99.90;;;;;;5087832;28;20797;-51
2022/12/27 02:38:01;;;;;;;9.80;2.20;;;2.90;99.90;;;;;;5080934;28;20513;-51
2022/12/27 02:55:15;;;;;;;7.77;2.60;;;3.00;99.90;;;;;;5062535;28;20458;-51
2022/12/27 02:57:47;;;;;;;5.10;2.07;;;3.10;99.90;;;;;;5079668;28;22397;-52
2022/12/27 03:03:35;;;;;;;5.23;1.60;;;3.10;99.90;;;;;;5079771;28;20474;-51
2022/12/27 03:06:39;;;;;;;3.80;1.73;;;3.00;99.90;;;;;;5072996;28;20566;-52
2022/12/27 03:15:53;;;;;;;3.67;2.07;;;3.00;99.90;;;;;;5077693;28;20462;-50
2022/12/27 03:18:12;;;;;;;12.03;2.47;;;2.90;99.90;;;;;;5034693;28;20455;-51
2022/12/27 03:26:14;;;;;;;8.93;2.80;;;2.80;99.90;;;;;;5088514;28;20514;-50
2022/12/27 03:34:34;;;;;;;6.93;1.97;;;2.70;99.90;;;;;;5083464;28;20816;-50
2022/12/27 03:39:56;;;;;;;2.70;1.67;;;2.60;99.90;;;;;;5078022;28;20456;-50
2022/12/27 03:45:10;;;;;;;5.17;2.00;;;2.50;99.90;;;;;;5085201;28;20933;-51
2022/12/27 03:47:41;;;;;;;6.73;1.90;;;2.50;99.90;;;;;;5078909;28;20845;-50
2022/12/27 03:50:13;;;;;;;5.33;1.77;;;2.50;99.90;;;;;;5089391;28;20452;-50
2022/12/27 03:52:47;;;;;;;8.13;2.13;;;2.50;99.90;;;;;;5084583;28;20988;-52
2022/12/27 03:55:15;;;;;;;8.37;2.37;;;2.50;99.90;;;;;;5070788;28;20441;-51
2022/12/27 03:57:42;;;;;;;8.53;3.07;;;2.40;99.90;;;;;;5089745;28;20506;-52
2022/12/27 04:00:10;;;;;;;3.50;2.30;;;2.50;99.90;;;;;;5071643;28;20442;-50
2022/12/27 04:02:37;;;;;;;6.93;2.63;;;2.40;99.90;;;;;;5079736;28;20472;-51
2022/12/27 04:05:04;;;;;;;6.73;1.90;;;2.40;99.90;;;;;;5093344;28;20460;-51
2022/12/27 04:07:30;;;;;;;9.07;2.40;;;2.50;99.90;;;;;;5092965;28;20511;-54
2022/12/27 04:34:42;;;;;;;7.87;2.07;;;2.60;99.90;;;;;;5090403;28;20444;-55
2022/12/27 04:37:11;;;;;;;10.23;2.30;;;2.60;99.90;;;;;;5094121;28;20547;-54
2022/12/27 04:39:37;;;;;;;6.90;2.93;;;2.70;99.90;;;;;;5089675;28;20483;-54
2022/12/27 04:55:56;;;;;;;11.27;2.97;;;2.70;99.90;;;;;;5086781;28;20429;-55
2022/12/27 04:58:24;;;;;;;6.20;1.93;;;2.80;99.90;;;;;;5084590;28;20461;-55
2022/12/27 05:03:36;;;;;;;10.20;2.83;;;2.70;99.90;;;;;;5083772;28;20536;-55
2022/12/27 05:06:03;;;;;;;6.43;1.70;;;2.60;99.90;;;;;;5089990;28;20511;-55
2022/12/27 05:14:01;;;;;;;4.40;2.20;;;2.60;99.90;;;;;;5087116;28;20483;-55
2022/12/27 05:16:29;;;;;;;2.90;1.77;;;2.70;99.90;;;;;;5083641;28;20465;-54
2022/12/27 05:18:57;;;;;;;3.40;1.83;;;2.70;99.90;;;;;;5082769;28;20456;-54
2022/12/27 05:21:23;;;;;;;6.43;2.57;;;2.60;99.90;;;;;;5081905;28;20523;-55
2022/12/27 05:26:35;;;;;;;7.90;2.37;;;2.60;99.90;;;;;;5085475;28;20877;-55
2022/12/27 05:29:02;;;;;;;4.90;3.03;;;2.60;99.90;;;;;;5087349;28;20496;-55
2022/12/27 05:31:30;;;;;;;3.33;2.17;;;2.60;99.90;;;;;;5086782;28;20516;-55
2022/12/27 05:33:57;;;;;;;6.17;2.30;;;2.60;99.90;;;;;;5081049;28;20610;-55
2022/12/27 05:36:24;;;;;;;6.50;2.90;;;2.60;99.90;;;;;;5091314;28;20506;-55
2022/12/27 05:38:51;;;;;;;7.20;2.60;;;2.70;99.90;;;;;;5084911;28;20464;-54
2022/12/27 05:41:18;;;;;;;2.20;2.00;;;2.70;99.90;;;;;;5085787;28;21010;-55
2022/12/27 05:43:45;;;;;;;8.57;2.97;;;2.70;99.90;;;;;;5090085;28;20457;-54
2022/12/27 05:46:16;;;;;;;9.70;3.40;;;2.60;99.90;;;;;;5090572;28;20537;-55
2022/12/27 05:48:43;;;;;;;2.60;2.27;;;2.60;99.90;;;;;;5092602;28;20538;-56
2022/12/27 05:51:12;;;;;;;7.27;2.40;;;2.60;99.90;;;;;;5080499;28;20483;-54
2022/12/27 05:53:38;;;;;;;8.97;2.80;;;2.60;99.90;;;;;;5086075;28;20481;-55
2022/12/27 05:56:06;;;;;;;7.20;2.30;;;2.70;99.90;;;;;;5082530;28;20503;-54
2022/12/27 05:58:33;;;;;;;4.40;2.63;;;2.70;99.90;;;;;;5074517;28;20481;-54
2022/12/27 06:01:00;;;;;;;6.03;2.47;;;2.60;99.90;;;;;;5081492;28;20490;-55
2022/12/27 06:03:28;;;;;;;6.47;2.67;;;2.60;99.90;;;;;;5083918;28;20499;-54
2022/12/27 06:06:12;;;;;;;6.60;2.63;;;2.60;99.90;;;;;;5090000;28;20467;-55
2022/12/27 06:08:45;;;;;;;4.80;2.20;;;2.60;99.90;;;;;;5079986;28;21267;-54
2022/12/27 06:11:15;;;;;;;5.37;2.97;;;2.60;99.90;;;;;;5088965;28;21050;-55
2022/12/27 06:13:50;;;;;;;5.87;2.23;;;2.50;99.90;;;;;;5081038;28;20523;-54
2022/12/27 06:16:20;;;;;;;7.40;2.67;;;2.50;99.90;;;;;;5085970;28;20456;-53
2022/12/27 06:18:56;;;;;;;8.27;2.33;;;2.50;99.90;;;;;;5092351;28;20471;-54
2022/12/27 06:21:28;;;;;;;3.00;1.90;;;2.60;99.90;;;;;;5089491;28;20467;-54
2022/12/27 06:23:55;;;;;;;6.13;2.60;;;2.60;99.90;;;;;;5079299;28;20452;-55
2022/12/27 06:26:29;;;;;;;6.67;2.73;;;2.60;99.90;;;;;;5073579;28;20563;-56
2022/12/27 06:29:09;;;;;;;6.40;2.10;;;2.60;99.90;;;;;;5085897;28;21126;-54
2022/12/27 06:31:41;;;;;;;6.03;1.80;;;2.60;99.90;;;;;;5088492;28;20473;-54
2022/12/27 06:34:15;;;;;;;6.83;2.87;;;2.60;99.90;;;;;;5088014;28;20464;-56
2022/12/27 06:36:49;;;;;;;7.40;2.00;;;2.70;99.90;;;;;;5087302;28;20451;-55
2022/12/27 06:39:16;;;;;;;7.47;2.50;;;2.70;99.90;;;;;;5071522;28;20553;-54
2022/12/27 06:41:49;;;;;;;5.43;2.30;;;2.70;99.90;;;;;;5076108;28;20499;-54
2022/12/27 06:44:18;;;;;;;22.90;3.13;;;2.70;99.90;;;;;;5079040;28;20459;-54
2022/12/27 06:46:45;;;;;;;8.67;3.50;;;2.90;99.90;;;;;;5082002;28;20505;-54
2022/12/27 06:49:14;;;;;;;2.40;1.47;;;2.90;99.90;;;;;;5087587;28;20461;-56
2022/12/27 06:51:50;;;;;;;5.53;3.00;;;3.00;99.90;;;;;;5089576;28;20460;-54
2022/12/27 06:54:23;;;;;;;4.20;2.17;;;3.10;99.90;;;;;;5081762;28;20492;-54
2022/12/27 06:56:55;;;;;;;9.80;2.40;;;3.10;99.90;;;;;;5079382;28;20514;-54
2022/12/27 06:59:30;;;;;;;5.70;2.53;;;3.00;99.90;;;;;;5081135;28;20461;-56
2022/12/27 07:02:07;;;;;;;8.40;2.10;;;2.90;99.90;;;;;;5085167;28;20476;-54
2022/12/27 07:04:44;;;;;;;7.07;2.53;;;2.80;99.90;;;;;;5091409;28;20444;-56
2022/12/27 07:07:14;;;;;;;4.20;2.27;;;2.80;99.90;;;;;;5083987;28;20864;-55
2022/12/27 07:09:47;;;;;;;3.40;1.50;;;2.80;99.90;;;;;;5084517;28;20461;-55
2022/12/27 07:12:14;;;;;;;4.63;2.17;;;2.90;99.90;;;;;;5082055;28;20487;-55
2022/12/27 07:14:43;;;;;;;12.47;2.43;;;3.00;99.90;;;;;;5077534;28;20468;-55
2022/12/27 07:17:18;;;;;;;3.67;1.87;;;3.10;99.90;;;;;;5076745;28;20454;-53
2022/12/27 07:19:52;;;;;;;3.30;2.03;;;3.20;99.90;;;;;;5089180;28;20453;-53
2022/12/27 07:22:21;;;;;;;7.77;2.30;;;3.30;99.90;;;;;;5085028;28;20519;-54
2022/12/27 07:24:48;;;;;;;7.20;1.93;;;3.30;99.90;;;;;;5083001;28;20489;-54
2022/12/27 07:27:25;;;;;;;4.93;2.13;;;3.40;99.90;;;;;;5080926;28;20493;-54
2022/12/27 07:29:53;;;;;;;8.63;1.90;;;3.40;99.90;;;;;;5088878;28;20896;-56
2022/12/27 07:32:25;;;;;;;9.93;2.37;;;3.40;99.90;;;;;;5075747;28;20530;-55
2022/12/27 07:35:00;;;;;;;7.70;1.77;;;3.40;99.90;;;;;;5082678;28;20518;-55
2022/12/27 07:37:37;;;;;;;5.97;2.17;;;3.40;99.90;;;;;;5087053;28;20453;-55
2022/12/27 07:40:05;;;;;;;3.53;1.80;;;3.60;99.90;;;;;;5086277;28;20464;-53
2022/12/27 07:42:32;;;;;;;7.30;2.20;;;3.70;99.90;;;;;;5091611;28;20879;-54
2022/12/27 07:45:01;;;;;;;6.13;2.30;;;3.70;99.90;;;;;;5080477;28;20457;-54
2022/12/27 07:47:28;;;;;;;5.63;2.00;;;3.80;99.90;;;;;;5088016;28;20476;-54
2022/12/27 07:49:59;;;;;;;10.37;2.03;;;3.80;99.90;;;;;;5094621;28;20537;-54
2022/12/27 07:52:28;;;;;;;8.20;2.10;;;3.90;99.90;;;;;;5086993;28;21024;-54
2022/12/27 07:54:56;;;;;;;7.70;2.40;;;3.90;99.90;;;;;;5093016;28;21010;-56
2022/12/27 07:57:24;;;;;;;4.13;1.70;;;3.90;99.90;;;;;;5091141;28;20832;-56
2022/12/27 07:59:58;;;;;;;5.67;2.03;;;3.90;99.90;;;;;;5080319;28;20469;-54
2022/12/27 08:02:34;;;;;;;6.73;2.23;;;3.90;99.90;;;;;;5084066;28;20479;-54
2022/12/27 08:05:10;;;;;;;2.60;1.63;;;3.90;99.90;;;;;;5077900;28;20468;-54
2022/12/27 08:07:38;;;;;;;2.73;1.83;;;3.90;99.90;;;;;;5076484;28;20916;-53
2022/12/27 08:10:11;;;;;;;3.43;1.73;;;3.90;99.90;;;;;;5087444;28;20452;-56
2022/12/27 08:12:38;;;;;;;5.60;2.00;;;4.00;99.90;;;;;;5086156;28;20484;-54
2022/12/27 08:15:07;;;;;;;4.00;1.73;;;4.00;99.90;;;;;;5080575;28;20811;-54
2022/12/27 08:17:34;;;;;;;2.80;2.30;;;4.00;99.90;;;;;;5087886;28;20487;-55
2022/12/27 08:20:07;;;;;;;5.70;1.90;;;4.00;99.90;;;;;;5089374;28;20807;-54
2022/12/27 08:22:36;;;;;;;8.00;1.97;;;4.00;99.90;;;;;;5082772;28;20839;-56
2022/12/27 08:25:07;;;;;;;5.83;2.23;;;4.00;99.90;;;;;;5089977;28;20464;-56
2022/12/27 08:27:34;;;;;;;3.60;1.47;;;4.00;99.90;;;;;;5089884;28;20818;-54
2022/12/27 08:30:01;;;;;;;5.97;2.03;;;4.10;99.90;;;;;;5086959;28;20471;-55
2022/12/27 08:32:31;;;;;;;8.57;2.60;;;4.00;99.90;;;;;;5082939;28;20495;-56
2022/12/27 08:35:03;;;;;;;10.20;2.10;;;4.10;99.90;;;;;;5089546;28;20467;-54
2022/12/27 08:37:39;;;;;;;8.00;2.23;;;4.00;99.90;;;;;;5088931;28;20939;-54
2022/12/27 08:40:08;;;;;;;8.57;2.40;;;4.00;99.90;;;;;;5085543;28;20540;-54
2022/12/27 08:42:37;;;;;;;8.20;2.30;;;4.10;99.90;;;;;;5084263;28;20480;-54
2022/12/27 08:45:04;;;;;;;7.97;2.20;;;4.10;99.90;;;;;;5087419;28;20461;-54
2022/12/27 08:47:33;;;;;;;7.73;2.17;;;4.10;99.90;;;;;;5082149;28;20836;-54
2022/12/27 08:50:07;;;;;;;4.30;1.70;;;4.10;99.90;;;;;;5084709;28;20466;-54
2022/12/27 08:52:40;;;;;;;3.93;2.13;;;4.00;99.90;;;;;;5072741;28;20486;-54
2022/12/27 08:55:12;;;;;;;10.30;2.30;;;4.10;99.90;;;;;;5075357;28;20458;-54
2022/12/27 08:57:39;;;;;;;4.30;1.93;;;4.10;99.90;;;;;;5084608;28;20464;-54
2022/12/27 09:00:10;;;;;;;7.47;2.43;;;4.10;99.90;;;;;;5083430;28;20471;-53
2022/12/27 09:02:39;;;;;;;6.07;1.80;;;4.10;99.90;;;;;;5075587;28;20513;-54
2022/12/27 09:05:08;;;;;;;7.17;2.37;;;4.20;99.90;;;;;;5076379;28;20464;-56
2022/12/27 09:07:41;;;;;;;4.40;2.40;;;4.20;99.90;;;;;;5077956;28;20894;-54
2022/12/27 09:10:11;;;;;;;5.07;2.30;;;4.20;99.90;;;;;;5079527;28;20987;-54
2022/12/27 09:12:38;;;;;;;9.40;2.73;;;4.30;99.90;;;;;;5070768;28;20554;-54
2022/12/27 09:15:07;;;;;;;5.03;2.53;;;4.30;99.90;;;;;;5085149;28;20468;-54
2022/12/27 09:17:38;;;;;;;4.60;2.30;;;4.30;99.90;;;;;;5085452;28;20464;-55
2022/12/27 09:20:11;;;;;;;8.90;2.20;;;4.40;99.90;;;;;;5089431;28;20958;-53
2022/12/27 09:22:45;;;;;;;7.80;3.07;;;4.50;99.90;;;;;;5084275;28;20484;-55
2022/12/27 09:25:16;;;;;;;4.47;2.20;;;4.50;99.90;;;;;;5088716;28;20510;-55
2022/12/27 09:27:45;;;;;;;8.60;2.27;;;4.60;99.90;;;;;;5080335;28;20537;-55
2022/12/27 09:30:14;;;;;;;3.63;1.90;;;4.60;99.90;;;;;;5087877;28;20985;-55
2022/12/27 09:32:43;;;;;;;7.53;2.60;;;4.60;99.90;;;;;;5080991;28;20482;-55
2022/12/27 09:35:10;;;;;;;10.50;2.70;;;4.60;99.90;;;;;;5083018;28;20438;-55
2022/12/27 09:37:39;;;;;;;5.70;2.40;;;4.70;99.90;;;;;;5087137;28;20441;-55
2022/12/27 09:40:07;;;;;;;4.60;2.47;;;4.70;99.90;;;;;;5090017;28;20470;-54
2022/12/27 09:42:45;;;;;;;3.60;2.30;;;4.80;99.90;;;;;;5090676;28;20869;-53
2022/12/27 09:45:17;;;;;;;5.80;2.17;;;4.80;99.90;;;;;;5085976;28;20461;-54
2022/12/27 09:47:54;;;;;;;5.77;3.00;;;4.80;99.90;;;;;;5085836;28;20473;-54
2022/12/27 09:50:28;;;;;;;6.13;2.77;;;4.70;99.90;;;;;;5088897;28;20496;-54
2022/12/27 09:53:01;;;;;;;6.03;2.77;;;4.70;99.90;;;;;;5085385;28;20472;-54
2022/12/27 09:55:42;;;;;;;8.13;3.00;;;4.70;99.90;;;;;;5089599;28;20462;-54
2022/12/27 09:58:31;;;;;;;11.80;2.73;;;4.80;99.90;;;;;;5082468;28;20453;-54
2022/12/27 10:01:01;;;;;;;4.50;2.10;;;4.80;99.90;;;;;;5082106;28;20455;-54
2022/12/27 10:03:29;;;;;;;5.57;2.60;;;4.80;99.90;;;;;;5078389;28;20467;-53
2022/12/27 10:06:21;;;;;;;13.43;3.07;;;4.80;99.90;;;;;;5077233;28;20543;-54
2022/12/27 10:08:55;;;;;;;11.93;2.40;;;4.80;99.90;;;;;;5086220;28;20475;-55
2022/12/27 10:11:38;;;;;;;5.57;2.50;;;4.80;99.90;;;;;;5076725;28;20480;-54
2022/12/27 10:14:29;;;;;;;4.83;2.57;;;4.80;99.90;;;;;;5067994;28;20605;-54
2022/12/27 10:17:01;;;;;;;7.83;2.87;;;4.80;99.90;;;;;;5081736;28;20471;-54
2022/12/27 10:19:38;;;;;;;9.70;2.70;;;4.90;99.90;;;;;;5077031;28;20453;-55
2022/12/27 10:22:19;;;;;;;11.03;3.53;;;4.90;99.90;;;;;;5081534;28;20473;-54
2022/12/27 10:24:50;;;;;;;3.77;2.40;;;5.00;99.90;;;;;;5079308;28;20989;-53
2022/12/27 10:27:20;;;;;;;3.90;2.37;;;5.20;99.90;;;;;;5080442;28;20458;-53
2022/12/27 10:29:53;;;;;;;8.37;2.77;;;5.20;99.90;;;;;;5076789;28;20492;-53
2022/12/27 10:32:21;;;;;;;5.07;3.43;;;5.20;99.90;;;;;;5081238;28;20483;-51
2022/12/27 10:34:49;;;;;;;6.97;2.17;;;5.30;99.90;;;;;;5104434;22;20464;-53
2022/12/27 10:37:16;;;;;;;4.87;2.60;;;5.30;99.90;;;;;;5023411;28;20514;-53
2022/12/27 10:39:43;;;;;;;10.53;3.23;;;5.30;99.90;;;;;;5037154;28;20468;-53
2022/12/27 10:42:24;;;;;;;4.13;2.90;;;5.30;99.90;;;;;;5020514;28;20459;-53
2022/12/27 10:44:53;;;;;;;6.23;2.40;;;5.30;99.90;;;;;;5027687;28;20499;-53
2022/12/27 10:47:25;;;;;;;9.13;2.50;;;5.40;99.90;;;;;;5004223;28;20495;-53
2022/12/27 10:50:09;;;;;;;5.10;2.73;;;5.40;26.10;;;;;;5016860;28;20487;-54
2022/12/27 10:52:35;;;;;;;10.23;2.83;;;5.50;74.80;;;;;;4998398;28;20553;-53
2022/12/27 10:55:02;;;;;;;9.53;2.70;;;5.50;29.60;;;;;;5006240;28;20876;-54
2022/12/27 10:57:31;;;;;;;7.60;2.47;;;5.50;27.90;;;;;;5003193;28;20551;-54
2022/12/27 11:00:16;;;;;;;6.50;2.33;;;5.50;24.80;;;;;;5007112;28;20459;-54
2022/12/27 11:02:49;;;;;;;7.80;3.37;;;5.50;25.50;;;;;;5001802;28;20840;-54
2022/12/27 11:05:21;;;;;;;13.40;3.47;;;5.40;78.00;;;;;;5005891;28;20518;-53
2022/12/27 11:07:48;;;;;;;7.20;2.60;;;5.50;24.80;;;;;;5009342;28;20985;-53
2022/12/27 11:10:16;;;;;;;6.97;3.03;;;5.70;27.70;;;;;;5011340;28;20464;-52
2022/12/27 11:12:58;;;;;;;14.07;3.87;;;6.10;33.10;;;;;;5009711;28;20878;-53
2022/12/27 11:15:28;;;;;;;4.73;2.50;;;6.50;60.40;;;;;;5017811;28;20476;-53
2022/12/27 11:17:57;;;;;;;7.20;2.70;;;6.20;69.00;;;;;;5006072;28;20456;-53
2022/12/27 11:20:27;;;;;;;9.37;3.47;;;6.10;60.40;;;;;;5000046;28;20464;-53
2022/12/27 11:22:57;;;;;;;7.13;3.27;;;6.50;71.90;;;;;;5009026;28;20646;-52
2022/12/27 11:25:26;;;;;;;8.63;2.60;;;6.50;73.00;;;;;;5004454;28;20483;-53
2022/12/27 11:27:56;;;;;;;8.87;2.97;;;6.30;60.30;;;;;;5018852;28;20494;-53
2022/12/27 11:30:27;;;;;;;7.43;3.00;;;6.00;57.10;;;;;;5007012;28;20498;-53
2022/12/27 11:32:57;;;;;;;4.33;2.27;;;5.90;46.80;;;;;;5003531;28;20487;-53
2022/12/27 11:35:24;;;;;;;5.90;2.60;;;5.80;30.30;;;;;;5009569;28;20520;-53
2022/12/27 11:37:51;;;;;;;5.67;2.70;;;5.70;30.20;;;;;;5006940;28;21037;-53
2022/12/27 11:40:23;;;;;;;8.33;3.00;;;5.70;25.90;;;;;;5007483;28;20999;-53
2022/12/27 11:42:52;;;;;;;9.90;2.50;;;5.60;99.90;;;;;;5009459;28;20494;-53
2022/12/27 11:45:22;;;;;;;5.33;2.80;;;5.60;99.90;;;;;;5004574;28;20523;-53
2022/12/27 11:47:54;;;;;;;3.97;2.77;;;5.60;75.10;;;;;;5005536;28;20472;-53
2022/12/27 11:50:58;;;;;;;6.50;2.30;;;5.60;85.00;;;;;;5005008;28;20469;-53
2022/12/27 11:53:51;;;;;;;8.20;2.70;;;5.60;21.20;;;;;;4997571;28;20671;-53
2022/12/27 11:56:23;;;;;;;4.70;2.43;;;5.60;24.50;;;;;;4999438;28;20475;-52
2022/12/27 11:59:23;;;;;;;7.60;2.30;;;5.60;83.50;;;;;;5000328;28;20543;-53
2022/12/27 12:02:21;;;;;;;10.37;3.20;;;5.60;80.40;;;;;;5005286;28;20539;-53
2022/12/27 12:05:25;;;;;;;3.43;1.80;;;5.60;74.00;;;;;;4998614;28;20467;-53
2022/12/27 12:08:10;;;;;;;8.10;2.30;;;5.60;27.40;;;;;;4993183;28;20525;-53
2022/12/27 12:10:48;;;;;;;11.20;2.50;;;5.60;29.20;;;;;;5006844;28;20561;-53
2022/12/27 12:13:44;;;;;;;14.63;3.27;;;5.60;33.40;;;;;;4997355;28;20491;-52
2022/12/27 12:17:04;;;;;;;4.97;2.30;;;5.70;29.10;;;;;;4965725;28;20570;-53
2022/12/27 12:19:46;;;;;;;7.10;2.40;;;5.60;27.90;;;;;;4893537;29;20915;-53
2022/12/27 12:22:29;;;;;;;11.67;2.43;;;5.60;25.40;;;;;;5004277;28;21221;-54
2022/12/27 12:25:19;;;;;;;5.80;2.57;;;5.60;25.10;;;;;;5010633;28;20483;-54
2022/12/27 12:28:00;;;;;;;6.93;2.37;;;5.70;28.60;;;;;;5005358;28;20503;-52
2022/12/27 12:30:46;;;;;;;7.60;3.00;;;5.70;34.90;;;;;;5003897;28;20542;-54
2022/12/27 12:33:30;;;;;;;6.60;2.70;;;5.70;38.90;;;;;;4999043;28;20531;-53
2022/12/27 12:36:18;;;;;;;11.43;3.43;;;5.70;46.50;;;;;;5016511;28;20926;-53
2022/12/27 12:38:50;;;;;;;10.03;3.77;;;5.80;55.50;;;;;;5013218;28;20487;-54
2022/12/27 12:41:34;;;;;;;10.37;2.70;;;5.80;54.40;;;;;;5006607;28;20492;-53
2022/12/27 12:44:37;;;;;;;8.23;3.00;;;5.80;62.90;;;;;;5004180;28;20500;-53
2022/12/27 12:47:13;;;;;;;7.47;3.30;;;5.80;57.60;;;;;;5009148;28;20483;-54
2022/12/27 12:50:01;;;;;;;12.07;7.20;;;5.70;60.10;;;;;;5004553;28;20515;-52
2022/12/27 12:52:59;;;;;;;6.23;2.93;;;5.70;53.90;;;;;;5017667;28;20480;-53
2022/12/27 12:55:39;;;;;;;10.27;2.53;;;6.00;74.80;;;;;;5012230;28;20903;-53
2022/12/27 12:58:25;;;;;;;3.50;2.20;;;5.80;69.90;;;;;;5014949;28;20500;-54
2022/12/27 13:01:12;;;;;;;6.23;2.40;;;5.70;62.70;;;;;;5002828;28;20498;-54
2022/12/27 13:03:56;;;;;;;7.20;2.50;;;5.60;57.40;;;;;;4999919;28;20831;-53
2022/12/27 13:06:46;;;;;;;8.73;2.33;;;5.60;62.30;;;;;;5003589;28;20530;-53
2022/12/27 13:09:24;;;;;;;5.43;2.73;;;5.60;68.80;;;;;;5000637;28;20564;-53
2022/12/27 13:11:57;;;;;;;9.40;2.60;;;5.70;83.70;;;;;;5001719;28;20492;-53
2022/12/27 13:14:49;;;;;;;6.93;2.47;;;5.70;77.30;;;;;;5011469;28;20531;-52
2022/12/27 13:17:20;;;;;;;9.43;3.03;;;5.70;73.90;;;;;;4997447;28;20488;-53
2022/12/27 13:20:05;;;;;;;7.30;3.20;;;5.70;68.30;;;;;;5005390;28;20507;-53
2022/12/27 13:22:42;;;;;;;10.17;3.50;;;5.70;71.30;;;;;;5011430;28;20460;-53
2022/12/27 13:25:19;;;;;;;3.93;2.20;;;5.60;74.50;;;;;;5028998;28;20497;-53
2022/12/27 13:27:54;;;;;;;9.63;1.70;;;5.70;78.10;;;;;;5005441;28;20495;-54
2022/12/27 13:30:24;;;;;;;6.30;2.10;;;5.60;72.20;;;;;;4998700;28;20514;-53
2022/12/27 13:33:04;;;;;;;6.37;2.07;;;5.60;71.20;;;;;;5000993;28;20491;-53
2022/12/27 13:35:42;;;;;;;5.53;2.57;;;5.50;68.80;;;;;;5005224;28;20526;-53
2022/12/27 13:38:24;;;;;;;5.50;2.20;;;5.40;52.80;;;;;;5008306;28;20448;-54
2022/12/27 13:41:20;;;;;;;12.70;2.97;;;5.40;62.10;;;;;;5000656;28;20469;-54
2022/12/27 13:44:04;;;;;;;13.80;3.20;;;5.40;66.90;;;;;;4998280;28;20653;-53
2022/12/27 13:46:56;;;;;;;9.50;2.43;;;5.50;72.00;;;;;;5007959;28;20630;-53
2022/12/27 13:49:38;;;;;;;7.03;2.60;;;5.50;70.90;;;;;;4998228;28;20523;-52
2022/12/27 13:52:17;;;;;;;5.40;2.93;;;5.60;70.10;;;;;;4998943;28;21111;-52
2022/12/27 13:55:21;;;;;;;7.60;2.20;;;5.50;68.00;;;;;;4997406;28;20572;-53
2022/12/27 13:58:19;;;;;;;13.23;3.87;;;5.50;71.00;;;;;;5001015;28;20502;-54
2022/12/27 14:00:52;;;;;;;9.23;3.63;;;5.40;66.70;;;;;;5001009;28;20551;-52
2022/12/27 14:03:52;;;;;;;12.10;2.77;;;5.30;59.70;;;;;;4997842;28;20500;-52
2022/12/27 14:06:54;;;;;;;6.27;2.47;;;5.20;62.60;;;;;;4998993;28;20569;-53
2022/12/27 14:09:50;;;;;;;6.17;2.10;;;5.30;68.60;;;;;;4999112;28;20506;-52
2022/12/27 14:12:43;;;;;;;7.13;2.90;;;5.30;65.90;;;;;;4992729;28;20486;-53
2022/12/27 14:15:15;;;;;;;12.87;2.90;;;5.30;63.70;;;;;;4997286;28;20541;-53
2022/12/27 14:17:49;;;;;;;8.07;2.70;;;5.40;68.10;;;;;;5000377;28;20461;-53
2022/12/27 14:20:36;;;;;;;7.33;3.23;;;5.40;70.40;;;;;;5000539;28;20555;-52
2022/12/27 14:23:26;;;;;;;6.57;3.00;;;5.40;71.70;;;;;;5006681;28;20499;-53
2022/12/27 14:26:24;;;;;;;9.83;2.23;;;5.40;67.00;;;;;;5001397;28;21049;-54
2022/12/27 14:29:17;;;;;;;11.23;3.03;;;5.40;63.70;;;;;;4997673;28;20571;-53
2022/12/27 14:32:04;;;;;;;5.40;2.90;;;5.30;59.80;;;;;;5000880;28;20610;-53
2022/12/27 14:35:14;;;;;;;7.93;2.77;;;5.30;51.60;;;;;;4997751;28;20889;-52
2022/12/27 14:38:07;;;;;;;8.03;2.70;;;5.30;45.20;;;;;;5005380;28;20887;-53
2022/12/27 14:40:55;;;;;;;8.60;3.20;;;5.30;44.80;;;;;;5002464;28;20496;-54
2022/12/27 14:44:24;;;;;;;6.17;3.00;;;5.20;45.00;;;;;;4999435;28;20468;-52
2022/12/27 14:47:20;;;;;;;10.10;3.50;;;5.30;45.10;;;;;;4959284;28;20541;-54
2022/12/27 14:50:20;;;;;;;8.80;3.43;;;5.30;47.40;;;;;;5000471;28;20512;-53
2022/12/27 14:53:14;;;;;;;4.30;2.70;;;5.30;45.00;;;;;;4962656;28;20548;-53
2022/12/27 14:55:52;;;;;;;6.43;3.60;;;5.20;41.00;;;;;;5010130;28;20525;-53
2022/12/27 14:58:47;;;;;;;7.90;2.90;;;5.10;36.80;;;;;;5009134;28;20503;-52
2022/12/27 15:01:25;;;;;;;6.23;3.47;;;4.90;32.00;;;;;;4995360;28;20456;-54
2022/12/27 15:04:03;;;;;;;12.80;3.80;;;4.80;24.20;;;;;;5000729;28;20499;-52
2022/12/27 15:06:56;;;;;;;5.63;3.00;;;4.80;79.90;;;;;;4997559;28;20507;-52
2022/12/27 15:09:32;;;;;;;11.33;3.63;;;4.70;84.30;;;;;;4999414;28;20492;-52